Unaka, North Carolina
Current Conditions -  °F | °C
As of 2:35 PM on Thursday 27 Nov 2014 (Local Time) from KRHP Reporting Station
Overcast Overcast  
Wind Chill: 32°   Ceiling: 4100
Heat Index: 38°   Visibility: 10mi
Dew Point: 26°   Wind: 7mph
Humidity: 64%   Direction: 300°WNW
Pressure: 30.24"   Gusts: NA
Location:  35.1195°N, 84.1344°W
Report Text: KRHP 271935Z AUTO 30006KT 10SM SCT035 OVC041 03/M03 A3024 RMK AO2 T00321031
Loading
Personal Weather Stations






























Interactive Weather Map New forecast layout! Learn more

10-Day Weather Forecast

Advertisements
Track Severe Weather on mobile